createdAt,value
2023-05-11T00:02:09.407Z,3.33
2023-05-11T00:04:37.028Z,2.85
2023-05-11T00:07:05.034Z,2.88
2023-05-11T00:09:32.413Z,3.28
2023-05-11T00:11:59.870Z,2.78
2023-05-11T00:14:27.624Z,2.58
2023-05-11T00:16:55.371Z,2.90
2023-05-11T00:19:22.929Z,3.40
2023-05-11T00:21:50.509Z,3.00
2023-05-11T00:24:17.935Z,3.10
2023-05-11T00:26:45.333Z,3.47
2023-05-11T00:29:12.769Z,2.85
2023-05-11T00:31:40.290Z,3.40
2023-05-11T00:34:07.890Z,3.47
2023-05-11T00:36:38.896Z,2.78
2023-05-11T00:39:06.706Z,2.70
2023-05-11T00:41:34.168Z,3.00
2023-05-11T00:44:01.721Z,3.47
2023-05-11T00:46:29.257Z,3.05
2023-05-11T00:48:57.670Z,2.88
2023-05-11T00:51:25.688Z,2.90
2023-05-11T00:53:53.331Z,2.42
2023-05-11T00:56:21.738Z,2.53
2023-05-11T00:58:49.537Z,2.90
2023-05-11T01:01:18.117Z,2.85
2023-05-11T01:03:46.828Z,2.40
2023-05-11T01:06:35.320Z,2.58
2023-05-11T01:09:39.705Z,3.43
2023-05-11T01:12:27.973Z,3.10
2023-05-11T01:15:39.408Z,3.10
2023-05-11T01:18:43.215Z,3.72
2023-05-11T01:21:17.217Z,3.15
2023-05-11T01:24:26.530Z,2.55
2023-05-11T01:27:29.643Z,3.05
2023-05-11T01:30:29.298Z,2.78
2023-05-11T01:33:07.102Z,3.00
2023-05-11T01:35:40.787Z,3.10
2023-05-11T01:38:13.488Z,2.78
2023-05-11T01:40:43.565Z,3.15
2023-05-11T01:43:21.284Z,3.08
2023-05-11T01:45:51.786Z,3.17
2023-05-11T01:48:23.894Z,3.97
2023-05-11T01:50:52.269Z,2.70
2023-05-11T01:53:20.896Z,2.90
2023-05-11T01:55:50.607Z,3.03
2023-05-11T01:58:19.168Z,3.13
2023-05-11T02:00:48.012Z,2.60
2023-05-11T02:03:16.321Z,2.55
2023-05-11T02:05:46.620Z,3.50
2023-05-11T02:08:16.230Z,3.35
2023-05-11T02:10:46.541Z,3.40
2023-05-11T02:13:17.192Z,3.10
2023-05-11T02:15:46.294Z,2.72
2023-05-11T02:18:15.348Z,3.38
2023-05-11T02:20:46.942Z,4.13
2023-05-11T02:23:15.804Z,3.75
2023-05-11T02:28:11.448Z,3.38
2023-05-11T02:30:46.807Z,3.72
2023-05-11T02:33:25.838Z,4.25
2023-05-11T02:35:55.894Z,4.25
2023-05-11T02:38:33.881Z,3.28
2023-05-11T02:41:13.387Z,3.20
2023-05-11T02:43:48.733Z,3.40
2023-05-11T02:46:23.309Z,4.43
2023-05-11T02:49:00.560Z,3.35
2023-05-11T02:51:38.884Z,2.72
2023-05-11T02:54:10.317Z,2.85
2023-05-11T02:56:41.939Z,2.90
2023-05-11T02:59:10.799Z,2.63
2023-05-11T03:01:39.806Z,2.87
2023-05-11T03:04:07.644Z,2.65
2023-05-11T03:06:36.313Z,2.85
2023-05-11T03:09:08.550Z,2.83
2023-05-11T03:11:42.726Z,2.78
2023-05-11T03:14:10.718Z,2.70
2023-05-11T03:16:39.833Z,3.08
2023-05-11T03:19:08.280Z,2.95
2023-05-11T03:21:38.490Z,3.13
2023-05-11T03:24:07.357Z,3.33
2023-05-11T03:26:35.781Z,3.33
2023-05-11T03:29:04.532Z,2.45
2023-05-11T03:31:32.211Z,2.47
2023-05-11T03:34:00.895Z,2.75
2023-05-11T03:36:31.724Z,3.25
2023-05-11T03:39:01.382Z,2.70
2023-05-11T03:41:34.488Z,2.50
2023-05-11T03:44:06.780Z,2.95
2023-05-11T03:46:39.605Z,3.28
2023-05-11T03:49:10.252Z,3.05
2023-05-11T03:51:40.713Z,2.20
2023-05-11T03:54:08.393Z,2.05
2023-05-11T03:56:38.293Z,2.83
2023-05-11T03:59:06.728Z,2.47
2023-05-11T04:01:34.595Z,1.73
2023-05-11T04:04:02.137Z,2.13
2023-05-11T04:06:30.359Z,1.95
2023-05-11T04:09:23.957Z,2.20
2023-05-11T04:11:54.100Z,2.22
2023-05-11T04:14:25.065Z,2.25
2023-05-11T04:16:52.634Z,2.60
2023-05-11T04:19:20.042Z,2.20
2023-05-11T04:21:47.520Z,3.72
2023-05-11T04:24:15.181Z,3.38
2023-05-11T04:26:42.768Z,2.67
2023-05-11T04:29:10.753Z,2.25
2023-05-11T04:31:38.300Z,5.95
2023-05-11T04:34:08.917Z,2.33
2023-05-11T04:36:37.648Z,2.38
2023-05-11T04:39:06.020Z,1.83
2023-05-11T04:41:35.075Z,2.40
2023-05-11T04:44:04.100Z,3.00
2023-05-11T04:46:31.704Z,2.20
2023-05-11T04:49:00.005Z,2.15
2023-05-11T04:51:30.660Z,1.65
2023-05-11T04:54:00.191Z,1.80
2023-05-11T04:56:27.898Z,1.48
2023-05-11T04:58:55.318Z,2.85
2023-05-11T05:01:23.070Z,2.63
2023-05-11T05:03:51.038Z,2.20
2023-05-11T05:06:18.580Z,1.73
2023-05-11T05:08:46.133Z,1.30
2023-05-11T05:11:13.634Z,1.75
2023-05-11T05:13:42.740Z,2.50
2023-05-11T05:16:10.916Z,2.25
2023-05-11T05:18:38.365Z,2.25
2023-05-11T05:21:06.221Z,1.70
2023-05-11T05:23:34.049Z,1.90
2023-05-11T05:26:01.697Z,1.20
2023-05-11T05:28:31.025Z,1.63
2023-05-11T05:30:58.972Z,1.47
2023-05-11T05:33:28.307Z,1.10
2023-05-11T05:35:56.005Z,1.08
2023-05-11T05:38:23.701Z,0.63
2023-05-11T05:40:51.534Z,1.48
2023-05-11T05:43:19.469Z,0.95
2023-05-11T05:45:47.652Z,1.73
2023-05-11T05:48:15.428Z,1.30
2023-05-11T05:50:42.911Z,0.98
2023-05-11T05:53:10.575Z,1.13
2023-05-11T05:55:38.172Z,1.50
2023-05-11T05:58:06.598Z,1.08
2023-05-11T06:00:35.805Z,1.35
2023-05-11T06:03:06.987Z,0.88
2023-05-11T06:05:34.699Z,1.20
2023-05-11T06:10:37.734Z,1.70
2023-05-11T06:13:07.573Z,2.03
2023-05-11T06:15:35.397Z,1.90
2023-05-11T06:18:10.000Z,1.38
2023-05-11T06:20:37.621Z,1.10
2023-05-11T06:23:07.364Z,1.20
2023-05-11T06:25:39.493Z,2.13
2023-05-11T06:28:08.205Z,1.30
2023-05-11T06:30:37.312Z,1.10
2023-05-11T06:33:07.169Z,1.17
2023-05-11T06:35:38.965Z,1.27
2023-05-11T06:38:09.371Z,1.02
2023-05-11T06:40:37.523Z,1.20
2023-05-11T06:43:05.851Z,1.42
2023-05-11T06:45:45.587Z,1.60
2023-05-11T06:48:13.605Z,1.17
2023-05-11T06:50:41.255Z,3.10
2023-05-11T06:53:13.485Z,1.45
2023-05-11T06:55:41.232Z,2.35
2023-05-11T06:58:09.041Z,2.00
2023-05-11T07:00:36.585Z,1.13
2023-05-11T07:03:05.203Z,1.42
2023-05-11T07:05:32.741Z,1.58
2023-05-11T07:08:00.225Z,1.33
2023-05-11T07:10:28.025Z,1.27
2023-05-11T07:12:55.369Z,1.10
2023-05-11T07:15:23.726Z,0.88
2023-05-11T07:17:52.023Z,1.33
2023-05-11T07:20:19.904Z,1.33
2023-05-11T07:22:47.545Z,1.27
2023-05-11T07:25:14.993Z,0.90
2023-05-11T07:27:42.554Z,0.65
2023-05-11T07:30:10.629Z,1.13
2023-05-11T07:32:38.302Z,1.13
2023-05-11T07:35:07.112Z,1.00
2023-05-11T07:37:34.663Z,0.65
2023-05-11T07:40:02.254Z,1.42
2023-05-11T07:42:48.296Z,0.65
2023-05-11T07:45:15.682Z,1.60
2023-05-11T07:47:44.547Z,1.08
2023-05-11T07:50:12.101Z,0.93
2023-05-11T07:52:39.630Z,0.82
2023-05-11T07:55:07.835Z,0.77
2023-05-11T07:57:35.298Z,0.87
2023-05-11T08:00:04.919Z,0.77
2023-05-11T08:02:39.134Z,1.05
2023-05-11T08:05:07.890Z,1.10
2023-05-11T08:07:35.472Z,0.95
2023-05-11T08:10:03.234Z,1.00
2023-05-11T08:12:30.677Z,1.45
2023-05-11T08:14:58.239Z,0.77
2023-05-11T08:17:25.696Z,0.90
2023-05-11T08:19:53.654Z,0.60
2023-05-11T08:22:21.350Z,0.60
2023-05-11T08:24:53.048Z,0.98
2023-05-11T08:27:20.820Z,0.60
2023-05-11T08:29:48.306Z,0.70
2023-05-11T08:32:15.985Z,1.00
2023-05-11T08:34:45.111Z,1.20
2023-05-11T08:37:12.798Z,1.15
2023-05-11T08:39:47.417Z,1.20
2023-05-11T08:42:16.741Z,0.88
2023-05-11T08:44:45.859Z,1.05
2023-05-11T08:49:44.908Z,0.88
2023-05-11T08:52:15.785Z,1.98
2023-05-11T08:54:43.353Z,2.10
2023-05-11T08:57:12.844Z,2.08
2023-05-11T08:59:44.180Z,2.10
2023-05-11T09:02:18.477Z,1.05
2023-05-11T09:04:48.654Z,0.90
2023-05-11T09:07:17.284Z,1.27
2023-05-11T09:09:46.872Z,1.00
2023-05-11T09:12:16.458Z,1.42
2023-05-11T09:14:44.194Z,0.65
2023-05-11T09:17:11.840Z,0.90
2023-05-11T09:20:04.733Z,1.15
2023-05-11T09:22:36.082Z,1.20
2023-05-11T09:25:04.318Z,1.10
2023-05-11T09:27:32.049Z,1.00
2023-05-11T09:30:23.175Z,0.75
2023-05-11T09:33:01.871Z,0.55
2023-05-11T09:35:34.475Z,0.60
2023-05-11T09:38:10.930Z,0.55
2023-05-11T09:40:51.592Z,1.20
2023-05-11T09:43:24.177Z,1.00
2023-05-11T09:45:57.525Z,0.80
2023-05-11T09:48:28.928Z,1.30
2023-05-11T09:51:03.522Z,0.85
2023-05-11T09:53:36.858Z,1.50
2023-05-11T09:56:05.049Z,0.45
2023-05-11T09:58:49.665Z,0.80
2023-05-11T10:01:27.758Z,0.77
2023-05-11T10:04:00.429Z,1.17
2023-05-11T10:07:06.318Z,0.55
2023-05-11T10:09:34.607Z,0.85
2023-05-11T10:12:03.580Z,0.82
2023-05-11T10:14:33.165Z,1.25
2023-05-11T10:17:02.453Z,1.10
2023-05-11T10:21:58.772Z,0.90
2023-05-11T10:24:26.704Z,0.70
2023-05-11T10:26:56.679Z,1.00
2023-05-11T10:29:24.317Z,0.50
2023-05-11T10:31:53.631Z,0.50
2023-05-11T10:34:22.734Z,0.60
2023-05-11T10:36:52.628Z,1.00
2023-05-11T10:39:20.477Z,0.40
2023-05-11T10:42:33.117Z,0.98
2023-05-11T10:45:17.816Z,0.88
2023-05-11T10:48:17.469Z,0.95
2023-05-11T10:51:34.446Z,0.68
2023-05-11T10:54:14.016Z,0.90
2023-05-11T10:56:56.340Z,1.10
2023-05-11T10:59:41.651Z,1.13
2023-05-11T11:02:09.632Z,1.50
2023-05-11T11:04:49.326Z,0.80
2023-05-11T11:07:19.179Z,1.05
2023-05-11T11:10:04.521Z,1.27
2023-05-11T11:12:35.653Z,1.27
2023-05-11T11:15:06.669Z,0.80
2023-05-11T11:17:35.877Z,0.60
2023-05-11T11:20:06.990Z,1.02
2023-05-11T11:22:34.633Z,0.90
2023-05-11T11:25:06.313Z,0.63
2023-05-11T11:27:40.005Z,0.50
2023-05-11T11:30:25.749Z,1.15
2023-05-11T11:33:12.929Z,1.05
2023-05-11T11:35:40.891Z,0.50
2023-05-11T11:38:14.383Z,0.32
2023-05-11T11:40:53.342Z,0.68
2023-05-11T11:46:03.486Z,1.33
2023-05-11T11:48:40.849Z,1.38
2023-05-11T11:51:10.992Z,0.88
2023-05-11T11:53:41.357Z,0.95
2023-05-11T11:56:28.720Z,0.77
2023-05-11T11:58:57.848Z,0.88
2023-05-11T12:01:35.025Z,0.65
2023-05-11T12:04:22.424Z,0.95
2023-05-11T12:06:57.577Z,0.70
2023-05-11T12:09:26.794Z,1.20
2023-05-11T12:11:55.646Z,1.38
2023-05-11T12:14:24.627Z,0.75
2023-05-11T12:17:14.826Z,0.70
2023-05-11T12:19:43.749Z,0.82
2023-05-11T12:22:14.103Z,0.60
2023-05-11T12:24:43.016Z,0.77
2023-05-11T12:29:38.733Z,1.00
2023-05-11T12:32:12.403Z,1.05
2023-05-11T12:34:40.220Z,0.98
2023-05-11T12:37:08.251Z,0.60
2023-05-11T12:39:36.068Z,1.00
2023-05-11T12:42:04.184Z,0.63
2023-05-11T12:44:32.989Z,0.52
2023-05-11T12:49:28.337Z,1.05
2023-05-11T12:51:58.348Z,0.60
2023-05-11T12:54:41.137Z,0.55
2023-05-11T12:57:22.815Z,1.20
2023-05-11T13:00:11.950Z,1.05
2023-05-11T13:02:53.113Z,0.70
2023-05-11T13:05:26.444Z,0.80
2023-05-11T13:08:03.520Z,0.60
2023-05-11T13:10:31.683Z,0.68
2023-05-11T13:12:59.114Z,0.90
2023-05-11T13:15:27.913Z,0.90
2023-05-11T13:17:58.845Z,0.68
2023-05-11T13:20:32.657Z,0.88
2023-05-11T13:23:13.123Z,1.33
2023-05-11T13:25:49.269Z,0.90
2023-05-11T13:28:21.356Z,1.40
2023-05-11T13:30:50.818Z,0.93
2023-05-11T13:33:19.121Z,0.60
2023-05-11T13:35:46.794Z,0.73
2023-05-11T13:38:14.236Z,0.80
2023-05-11T13:40:44.572Z,1.00
2023-05-11T13:43:12.025Z,1.00
2023-05-11T13:45:42.798Z,1.17
2023-05-11T13:48:10.302Z,0.93
2023-05-11T13:50:37.909Z,1.67
2023-05-11T13:53:05.764Z,1.27
2023-05-11T13:55:34.744Z,0.80
2023-05-11T14:00:29.759Z,0.70
2023-05-11T14:02:57.619Z,1.08
2023-05-11T14:05:25.932Z,0.85
2023-05-11T14:07:53.251Z,1.03
2023-05-11T14:10:21.068Z,1.10
2023-05-11T14:12:48.561Z,0.65
2023-05-11T14:15:16.206Z,1.42
2023-05-11T14:17:44.176Z,0.73
2023-05-11T14:20:13.060Z,0.80
2023-05-11T14:22:41.078Z,0.95
2023-05-11T14:25:09.462Z,1.08
2023-05-11T14:27:37.188Z,1.17
2023-05-11T14:30:06.590Z,1.70
2023-05-11T14:32:34.325Z,1.77
2023-05-11T14:35:01.946Z,1.55
2023-05-11T14:37:29.548Z,1.15
2023-05-11T14:39:57.284Z,0.68
2023-05-11T14:42:24.831Z,1.23
2023-05-11T14:44:52.375Z,0.98
2023-05-11T14:47:19.948Z,0.85
2023-05-11T14:49:47.464Z,1.10
2023-05-11T14:52:14.913Z,1.48
2023-05-11T14:54:42.592Z,0.98
2023-05-11T14:57:10.177Z,0.73
2023-05-11T14:59:47.639Z,1.38
2023-05-11T15:02:26.006Z,1.88
2023-05-11T15:04:54.334Z,1.35
2023-05-11T15:07:22.033Z,1.45
2023-05-11T15:09:50.158Z,1.85
2023-05-11T15:12:17.645Z,1.48
2023-05-11T15:14:45.374Z,1.30
2023-05-11T15:17:12.742Z,1.60
2023-05-11T15:19:40.382Z,0.95
2023-05-11T15:22:07.984Z,1.40
2023-05-11T15:24:35.517Z,1.75
2023-05-11T15:27:03.201Z,1.70
2023-05-11T15:29:30.624Z,1.17
2023-05-11T15:31:58.166Z,1.48
2023-05-11T15:34:26.298Z,1.92
2023-05-11T15:36:54.057Z,1.90
2023-05-11T15:39:21.538Z,1.48
2023-05-11T15:41:48.905Z,1.98
2023-05-11T15:44:16.567Z,1.80
2023-05-11T15:46:44.038Z,1.95
2023-05-11T15:49:11.460Z,1.77
2023-05-11T15:51:39.098Z,1.73
2023-05-11T15:54:07.408Z,2.03
2023-05-11T15:56:34.939Z,2.13
2023-05-11T15:59:02.477Z,1.50
2023-05-11T16:01:30.041Z,2.05
2023-05-11T16:03:58.299Z,1.25
2023-05-11T16:06:26.486Z,1.05
2023-05-11T16:08:54.134Z,1.65
2023-05-11T16:11:22.031Z,1.33
2023-05-11T16:13:49.499Z,2.15
2023-05-11T16:16:16.899Z,2.05
2023-05-11T16:18:46.595Z,1.63
2023-05-11T16:21:14.738Z,1.95
2023-05-11T16:23:42.198Z,1.23
2023-05-11T16:26:09.869Z,1.67
2023-05-11T16:28:37.947Z,1.80
2023-05-11T16:31:05.630Z,1.10
2023-05-11T16:33:33.083Z,0.82
2023-05-11T16:36:00.962Z,1.73
2023-05-11T16:38:28.505Z,1.48
2023-05-11T16:40:56.016Z,1.90
2023-05-11T16:43:23.784Z,0.90
2023-05-11T16:45:53.167Z,0.98
2023-05-11T16:48:21.186Z,1.33
2023-05-11T16:50:49.025Z,1.30
2023-05-11T16:53:17.078Z,1.30
2023-05-11T16:55:44.748Z,1.00
2023-05-11T16:58:12.608Z,1.63
2023-05-11T17:00:40.441Z,1.75
2023-05-11T17:03:08.220Z,1.33
2023-05-11T17:05:36.040Z,1.73
2023-05-11T17:08:03.756Z,0.98
2023-05-11T17:10:31.327Z,1.30
2023-05-11T17:12:58.964Z,1.10
2023-05-11T17:15:27.060Z,1.00
2023-05-11T17:17:55.253Z,0.68
2023-05-11T17:20:23.133Z,1.20
2023-05-11T17:22:50.960Z,1.20
2023-05-11T17:25:18.530Z,1.52
2023-05-11T17:27:45.973Z,1.23
2023-05-11T17:30:13.983Z,1.42
2023-05-11T17:32:41.933Z,1.63
2023-05-11T17:35:09.950Z,1.27
2023-05-11T17:37:37.344Z,1.25
2023-05-11T17:40:06.832Z,1.42
2023-05-11T17:42:34.930Z,0.80
2023-05-11T17:45:02.933Z,1.20
2023-05-11T17:47:31.039Z,1.42
2023-05-11T17:49:58.763Z,1.48
2023-05-11T17:52:26.881Z,1.27
2023-05-11T17:54:54.481Z,2.10
2023-05-11T17:57:23.069Z,1.52
2023-05-11T17:59:51.038Z,1.75
2023-05-11T18:02:18.760Z,1.52
2023-05-11T18:04:46.630Z,0.85
2023-05-11T18:07:14.143Z,1.55
2023-05-11T18:09:41.666Z,1.45
2023-05-11T18:12:09.376Z,1.08
2023-05-11T18:14:49.293Z,1.20
2023-05-11T18:17:17.844Z,1.13
2023-05-11T18:19:45.346Z,1.60
2023-05-11T18:22:12.857Z,1.52
2023-05-11T18:24:40.648Z,1.45
2023-05-11T18:27:08.467Z,1.55
2023-05-11T18:29:36.836Z,1.60
2023-05-11T18:32:04.851Z,1.80
2023-05-11T18:34:33.550Z,1.50
2023-05-11T18:37:02.213Z,1.20
2023-05-11T18:39:29.756Z,2.05
2023-05-11T18:42:00.719Z,1.63
2023-05-11T18:44:28.662Z,1.80
2023-05-11T18:46:56.243Z,1.45
2023-05-11T18:49:24.036Z,1.30
2023-05-11T18:51:51.833Z,1.20
2023-05-11T18:54:19.373Z,1.40
2023-05-11T18:56:48.072Z,1.08
2023-05-11T18:59:15.562Z,1.90
2023-05-11T19:01:47.923Z,1.48
2023-05-11T19:04:21.161Z,1.55
2023-05-11T19:06:48.844Z,2.03
2023-05-11T19:09:16.972Z,2.10
2023-05-11T19:11:44.647Z,1.48
2023-05-11T19:14:13.824Z,1.83
2023-05-11T19:16:41.523Z,2.13
2023-05-11T19:19:09.599Z,2.03
2023-05-11T19:21:39.890Z,1.65
2023-05-11T19:24:09.292Z,1.60
2023-05-11T19:26:38.027Z,2.40
2023-05-11T19:29:08.770Z,1.92
2023-05-11T19:31:36.390Z,2.67
2023-05-11T19:34:06.112Z,1.63
2023-05-11T19:36:34.323Z,2.08
2023-05-11T19:39:03.620Z,1.52
2023-05-11T19:41:31.716Z,1.38
2023-05-11T19:44:01.033Z,2.20
2023-05-11T19:46:29.264Z,2.70
2023-05-11T19:48:57.208Z,1.77
2023-05-11T19:51:24.840Z,2.60
2023-05-11T19:53:53.463Z,1.85
2023-05-11T19:56:21.364Z,1.88
2023-05-11T19:58:49.963Z,0.90
2023-05-11T20:01:17.985Z,1.55
2023-05-11T20:03:45.908Z,1.98
2023-05-11T20:06:13.650Z,1.92
2023-05-11T20:08:41.241Z,1.70
2023-05-11T20:11:08.927Z,2.03
2023-05-11T20:13:36.506Z,2.22
2023-05-11T20:16:04.427Z,1.80
2023-05-11T20:18:32.676Z,2.03
2023-05-11T20:21:00.495Z,1.92
2023-05-11T20:23:28.397Z,1.73
2023-05-11T20:25:56.162Z,2.05
2023-05-11T20:28:26.664Z,2.80
2023-05-11T20:30:55.707Z,1.83
2023-05-11T20:35:54.286Z,1.88
2023-05-11T20:38:22.341Z,2.42
2023-05-11T20:40:54.962Z,1.63
2023-05-11T20:43:22.586Z,1.95
2023-05-11T20:45:50.337Z,1.50
2023-05-11T20:48:23.367Z,1.95
2023-05-11T20:50:59.942Z,2.00
2023-05-11T20:53:28.086Z,1.60
2023-05-11T20:55:55.983Z,2.08
2023-05-11T20:58:23.839Z,1.70
2023-05-11T21:00:51.259Z,1.55
2023-05-11T21:03:19.121Z,1.92
2023-05-11T21:05:46.758Z,2.03
2023-05-11T21:08:14.455Z,1.75
2023-05-11T21:10:42.079Z,1.75
2023-05-11T21:13:10.659Z,1.63
2023-05-11T21:15:38.359Z,1.30
2023-05-11T21:18:06.387Z,1.75
2023-05-11T21:20:34.143Z,2.20
2023-05-11T21:23:01.942Z,1.75
2023-05-11T21:25:29.781Z,2.40
2023-05-11T21:27:57.849Z,1.73
2023-05-11T21:30:25.418Z,2.25
2023-05-11T21:32:53.325Z,1.83
2023-05-11T21:35:20.982Z,1.67
2023-05-11T21:37:49.211Z,1.70
2023-05-11T21:40:17.364Z,1.85
2023-05-11T21:42:45.702Z,1.60
2023-05-11T21:45:13.756Z,2.30
2023-05-11T21:47:41.643Z,1.67
2023-05-11T21:50:10.606Z,1.88
2023-05-11T21:52:38.507Z,1.70
2023-05-11T21:55:06.796Z,1.67
2023-05-11T21:57:34.495Z,1.80
2023-05-11T22:00:02.470Z,1.48
2023-05-11T22:02:32.272Z,1.58
2023-05-11T22:04:59.710Z,1.63
2023-05-11T22:07:27.336Z,1.58
2023-05-11T22:09:54.863Z,1.50
2023-05-11T22:12:22.562Z,2.63
2023-05-11T22:14:50.077Z,2.30
2023-05-11T22:17:17.532Z,1.48
2023-05-11T22:19:45.704Z,1.90
2023-05-11T22:22:13.397Z,1.70
2023-05-11T22:24:41.206Z,1.58
2023-05-11T22:27:14.605Z,2.35
2023-05-11T22:29:42.897Z,1.35
2023-05-11T22:32:11.416Z,1.40
2023-05-11T22:34:39.062Z,1.30
2023-05-11T22:37:06.704Z,1.40
2023-05-11T22:39:34.300Z,1.40
2023-05-11T22:42:01.990Z,2.38
2023-05-11T22:44:29.384Z,1.52
2023-05-11T22:46:58.729Z,2.10
2023-05-11T22:49:26.356Z,1.25
2023-05-11T22:51:57.952Z,1.40
2023-05-11T22:54:28.592Z,2.10
2023-05-11T22:56:56.721Z,2.42
2023-05-11T22:59:24.192Z,1.05
2023-05-11T23:01:51.893Z,1.83
2023-05-11T23:04:19.475Z,1.40
2023-05-11T23:06:47.034Z,2.15
2023-05-11T23:09:15.380Z,1.02
2023-05-11T23:11:43.555Z,0.88
2023-05-11T23:14:11.058Z,1.23
2023-05-11T23:16:38.476Z,2.70
2023-05-11T23:19:06.086Z,1.80
2023-05-11T23:21:33.673Z,1.40
2023-05-11T23:24:01.269Z,1.35
2023-05-11T23:26:28.800Z,1.77
2023-05-11T23:28:56.314Z,1.10
2023-05-11T23:31:23.908Z,2.10
2023-05-11T23:33:51.618Z,1.27
2023-05-11T23:36:19.122Z,1.27
2023-05-11T23:38:46.821Z,2.28
2023-05-11T23:41:14.460Z,1.38
2023-05-11T23:43:41.974Z,1.35
2023-05-11T23:46:09.590Z,1.13
2023-05-11T23:48:37.169Z,1.48
2023-05-11T23:51:04.950Z,1.20
2023-05-11T23:53:32.509Z,0.90
2023-05-11T23:56:00.408Z,1.20
2023-05-11T23:58:28.002Z,1.92
